Latest Weather Observations for Laverton

IDW60801

Issued at 4:35 pm WST Tuesday 2 September 2014 (issued every 30 minutes, with the page automatically refreshed every 10 minutes)

About weather observations | Map of weather stations | Latest weather observations for WA | Other Formats
Station Details ID: 012305 Name: LAVERTON AERO Lat: -28.61 Lon: 122.42 Height: 464.3 m
Data from the previous 72 hours. | See also: Recent months at Laverton
Date/Time
WST
Temp
°C
App
Temp
°C
Dew
Point
Rel
Hum
%
Delta-T
°C
Wind Press
QNH
hPa
Press
MSL
hPa
Rain
since 9 am
mm
Dir
 
Spd
km/h
Gust
km/h
Spd
kts
Gust
kts
02/04:30pm 26.9 21.9 3.4 22 11.9 N 19 26 10 14 1018.4 1017.2 0.0
02/04:00pm 27.2 22.2 3.7 22 12.0 N 19 37 10 20 1018.4 1017.2 0.0
02/03:30pm 26.8 20.4 3.3 22 11.9 N 26 32 14 17 1018.4 1017.2 0.0
02/03:00pm 26.8 21.3 4.0 23 11.7 N 22 35 12 19 1018.4 1017.2 0.0
02/02:30pm 26.6 21.2 4.4 24 11.4 N 22 32 12 17 1018.5 1017.3 0.0
02/02:00pm 26.1 21.0 4.0 24 11.3 NNE 20 32 11 17 1018.9 1017.7 0.0
02/01:30pm 26.0 20.6 4.5 25 11.1 NNE 22 32 12 17 1019.4 1018.2 0.0
02/01:00pm 24.6 19.6 3.8 26 10.4 NNE 19 26 10 14 1020.1 1018.9 0.0
02/12:30pm 24.5 19.4 4.3 27 10.3 NNE 20 28 11 15 1020.3 1019.1 0.0
02/12:00pm 23.6 18.1 4.0 28 9.8 NE 22 33 12 18 1020.8 1019.7 0.0
02/11:30am 22.3 17.2 3.9 30 9.1 NNE 20 32 11 17 1021.8 1020.6 0.0
02/11:00am 21.1 15.6 3.8 32 8.5 NNE 22 32 12 17 1022.4 1021.2 0.0
02/10:30am 20.6 15.1 3.8 33 8.2 NNE 22 30 12 16 1022.9 1021.8 0.0
02/10:00am 19.9 13.9 3.6 34 7.9 NE 24 30 13 16 1022.9 1021.8 0.0
02/09:30am 18.4 12.4 3.1 36 7.3 NE 24 32 13 17 1023.4 1022.2 0.0
02/09:00am 16.7 9.5 3.0 40 6.4 NE 30 43 16 23 1023.4 1022.2 0.0
02/08:30am 16.0 7.8 2.8 41 6.1 NE 35 50 19 27 1022.8 1021.7 0.0
02/08:00am 15.0 7.3 2.5 43 5.7 NE 32 41 17 22 1022.7 1021.6 0.0
02/07:30am 14.0 7.1 2.6 46 5.2 NE 28 43 15 23 1022.7 1021.6 0.0
02/07:00am 13.1 6.6 2.4 48 4.8 NE 26 39 14 21 1022.6 1021.5 0.0
02/06:30am 12.6 6.4 2.2 49 4.6 ENE 24 35 13 19 1022.6 1021.5 0.0
02/06:00am 12.5 6.7 2.4 50 4.5 ENE 22 33 12 18 1022.4 1021.2 0.0
02/05:30am 12.5 6.3 2.4 50 4.5 ENE 24 32 13 17 1022.0 1020.8 0.0
02/05:00am 12.5 6.0 2.7 51 4.4 ENE 26 35 14 19 1021.8 1020.6 0.0
02/04:30am 12.5 6.4 2.9 52 4.3 ENE 24 32 13 17 1021.8 1020.6 0.0
02/04:00am 12.6 6.5 3.0 52 4.3 ENE 24 39 13 21 1021.6 1020.4 0.0
02/03:30am 13.0 6.6 3.4 52 4.4 ENE 26 35 14 19 1022.0 1020.8 0.0
02/03:00am 13.3 7.0 3.7 52 4.4 ENE 26 33 14 18 1021.9 1020.7 0.0
02/02:30am 13.5 6.8 3.6 51 4.6 ENE 28 35 15 19 1022.2 1021.0 0.0
02/02:00am 13.7 7.0 3.8 51 4.6 ENE 28 37 15 20 1022.3 1021.1 0.0
02/01:30am 14.0 7.3 3.8 50 4.8 ENE 28 39 15 21 1022.4 1021.2 0.0
02/01:00am 14.3 7.6 3.7 49 4.9 ENE 28 37 15 20 1022.4 1021.2 0.0
02/12:30am 14.4 8.1 3.8 49 5.0 E 26 37 14 20 1022.8 1021.7 0.0
02/12:00am 14.7 8.0 3.8 48 5.1 ENE 28 39 15 21 1023.0 1021.9 0.0
 
Date/Time
WST
Temp
°C
App
Temp
°C
Dew
Point
Rel
Hum
%
Delta-T
°C
Wind Press
QNH
hPa
Press
MSL
hPa
Rain
since 9 am
mm
Dir
 
Spd
km/h
Gust
km/h
Spd
kts
Gust
kts
01/11:30pm 15.0 8.7 3.8 47 5.3 ENE 26 33 14 18 1023.4 1022.2 0.0
01/11:00pm 15.1 9.1 3.6 46 5.4 E 24 35 13 19 1023.4 1022.2 0.0
01/10:30pm 15.4 9.4 3.5 45 5.6 E 24 32 13 17 1023.8 1022.6 0.0
01/10:00pm 15.9 10.0 3.7 44 5.7 E 24 32 13 17 1024.0 1022.8 0.0
01/09:30pm 16.5 11.0 3.9 43 6.0 E 22 32 12 17 1024.1 1022.9 0.0
01/09:00pm 16.8 11.6 3.8 42 6.2 E 20 26 11 14 1024.3 1023.1 0.0
01/08:30pm 17.2 12.1 4.2 42 6.3 E 20 28 11 15 1024.0 1022.8 0.0
01/08:00pm 17.6 12.7 4.2 41 6.5 E 19 26 10 14 1023.7 1022.5 0.0
01/07:30pm 18.0 13.2 4.6 41 6.5 E 19 22 10 12 1023.6 1022.4 0.0
01/07:00pm 18.4 14.0 4.6 40 6.7 E 17 22 9 12 1023.2 1022.1 0.0
01/06:30pm 18.8 14.4 4.6 39 7.0 E 17 24 9 13 1022.6 1021.5 0.0
01/06:00pm 19.1 14.3 4.8 39 7.0 E 19 24 10 13 1022.5 1021.4 0.0
01/05:30pm 19.6 15.2 4.5 37 7.5 E 17 22 9 12 1022.4 1021.2 0.0
01/05:00pm 20.1 15.4 5.0 37 7.5 E 19 26 10 14 1022.2 1021.0 0.0
01/04:30pm 20.2 15.2 4.7 36 7.7 E 20 28 11 15 1022.0 1020.8 0.0
01/04:00pm 20.7 16.3 4.7 35 8.0 E 17 24 9 13 1021.9 1020.7 0.0
01/03:30pm 20.3 15.4 5.1 37 7.6 ESE 20 26 11 14 1021.8 1020.6 0.0
01/03:00pm 20.3 16.3 5.1 37 7.6 E 15 24 8 13 1021.6 1020.4 0.0
01/02:30pm 20.8 15.9 5.2 36 7.9 ENE 20 22 11 12 1021.8 1020.6 0.0
01/02:00pm 20.0 16.0 4.9 37 7.5 NNE 15 22 8 12 1021.9 1020.7 0.0
01/01:30pm 20.2 15.8 4.7 36 7.7 NE 17 28 9 15 1022.1 1020.9 0.0
01/01:00pm 19.7 14.9 4.6 37 7.4 ENE 19 30 10 16 1022.3 1021.1 0.0
01/12:30pm 20.0 15.3 5.3 38 7.4 E 19 35 10 19 1022.6 1021.5 0.0
01/12:00pm 19.1 14.3 4.8 39 7.0 E 19 30 10 16 1023.2 1022.1 0.0
01/11:30am 18.8 13.6 5.3 41 6.7 ENE 22 32 12 17 1023.4 1022.2 0.0
01/11:00am 18.1 12.8 5.0 42 6.4 E 22 35 12 19 1023.8 1022.6 0.0
01/10:30am 17.8 12.5 5.1 43 6.3 ENE 22 32 12 17 1024.4 1023.3 0.0
01/10:00am 16.8 11.1 4.8 45 5.8 ENE 24 35 13 19 1024.7 1023.6 0.0
01/09:30am 16.1 9.7 5.4 49 5.2 ENE 28 37 15 20 1024.4 1023.3 0.0
01/09:00am 15.1 8.2 6.4 56 4.3 ENE 32 39 17 21 1024.6 1023.5 0.0
01/08:30am 14.2 8.0 7.7 65 3.3 E 30 39 16 21 1023.9 1022.7 0.0
01/08:00am 13.2 6.4 7.9 70 2.7 E 33 43 18 23 1023.7 1022.5 0.0
01/07:30am 12.3 6.5 8.0 75 2.2 E 28 37 15 20 1023.1 1022.6 0.0
01/07:00am 12.1 6.7 8.0 76 2.1 ESE 26 37 14 20 1022.8 1022.3 0.0
01/06:30am 11.7 7.0 7.8 77 1.9 ESE 22 28 12 15 1022.6 1022.1 0.0
01/06:00am 11.7 8.0 7.8 77 1.9 ESE 17 24 9 13 1022.2 1021.7 0.0
01/05:30am 11.6 8.1 7.3 75 2.1 ESE 15 20 8 11 1021.9 1021.4 0.0
01/05:00am 11.7 8.2 7.2 74 2.2 ESE 15 19 8 10 1021.4 1020.8 0.0
01/04:30am 12.0 8.5 7.1 72 2.4 ESE 15 19 8 10 1020.9 1020.4 0.0
01/04:00am 12.1 8.6 7.0 71 2.5 ESE 15 20 8 11 1020.2 1019.7 0.0
01/03:30am 12.4 8.9 7.1 70 2.6 ESE 15 17 8 9 1020.0 1019.5 0.0
01/03:00am 12.7 9.2 7.0 68 2.8 SE 15 19 8 10 1020.0 1019.5 0.0
01/02:30am 12.8 9.2 6.8 67 3.0 SE 15 20 8 11 1020.2 1019.7 0.0
01/02:00am 13.3 10.0 6.6 64 3.3 SSE 13 17 7 9 1020.5 1020.0 0.0
01/01:30am 13.6 10.2 6.0 60 3.7 SSE 13 17 7 9 1020.1 1019.6 0.0
01/01:00am 14.0 10.0 4.9 54 4.3 SSE 15 19 8 10 1020.0 1019.5 0.0
01/12:30am 13.8 10.4 3.9 51 4.6 SSE 11 13 6 7 1019.6 1019.1 0.0
01/12:00am 14.5 11.0 3.6 48 5.1 SSE 11 13 6 7 1019.3 1018.7 0.0
 
Date/Time
WST
Temp
°C
App
Temp
°C
Dew
Point
Rel
Hum
%
Delta-T
°C
Wind Press
QNH
hPa
Press
MSL
hPa
Rain
since 9 am
mm
Dir
 
Spd
km/h
Gust
km/h
Spd
kts
Gust
kts
31/11:30pm 15.0 11.1 3.5 46 5.4 SSE 13 17 7 9 1019.3 1018.7 0.0
31/11:00pm 15.4 12.2 3.2 44 5.7 SSE 9 11 5 6 1019.4 1018.8 0.0
31/10:30pm 16.2 12.6 2.9 41 6.2 SSE 11 17 6 9 1019.3 1018.7 0.0
31/10:00pm 17.0 12.3 3.0 39 6.6 S 17 20 9 11 1019.4 1018.8 0.0
31/09:30pm 17.7 12.6 2.8 37 7.0 S 19 26 10 14 1019.0 1018.4 0.0
31/09:00pm 18.4 12.4 3.1 36 7.3 S 24 35 13 19 1018.9 1018.3 0.0
31/08:30pm 19.5 15.3 5.9 41 6.9 S 17 26 9 14 1018.5 1018.0 0.0
31/08:00pm 19.9 16.2 6.3 41 6.9 S 15 20 8 11 1018.6 1018.1 0.0
31/07:30pm 20.4 16.8 6.7 41 7.1 SSW 15 19 8 10 1018.5 1018.0 0.0
31/07:00pm 20.7 17.6 7.3 42 7.0 SSW 13 17 7 9 1017.9 1017.4 0.0
31/06:30pm 21.5 18.0 7.3 40 7.5 SSW 15 20 8 11 1017.4 1016.8 0.0
31/06:00pm 22.2 18.0 7.6 39 7.8 SW 19 24 10 13 1017.0 1016.4 0.0
31/05:30pm 22.9 18.7 8.2 39 7.9 SW 20 28 11 15 1016.6 1016.0 0.0
31/05:00pm 23.7 19.6 8.5 38 8.3 SW 20 30 11 16 1016.2 1015.7 0.0
31/04:30pm 24.0 20.1 8.8 38 8.3 SW 19 32 10 17 1015.9 1015.4 0.0
31/04:00pm 24.5 20.5 8.9 37 8.6 WSW 20 28 11 15 1015.7 1015.1 0.0
31/03:30pm 25.2 21.8 9.1 36 8.9 W 17 28 9 15 1015.9 1015.4 0.0
31/03:00pm 25.1 21.2 9.4 37 8.8 W 20 32 11 17 1015.8 1015.2 0.0
31/02:30pm 24.4 20.2 9.6 39 8.3 W 22 30 12 16 1015.8 1015.2 0.0
31/02:00pm 24.1 20.5 10.0 41 7.9 WSW 19 33 10 18 1015.8 1015.2 0.0
31/01:30pm 24.6 20.0 9.7 39 8.3 W 24 35 13 19 1016.1 1015.6 0.0
31/01:00pm 23.8 20.3 10.1 42 7.7 WSW 19 33 10 18 1016.2 1015.7 0.0
31/12:30pm 24.7 21.0 10.2 40 8.2 WSW 20 33 11 18 1016.3 1015.8 0.0
31/12:00pm 24.0 19.3 10.7 43 7.5 W 26 32 14 17 1016.8 1016.2 0.0
31/11:30am 22.9 18.7 11.0 47 6.7 W 24 32 13 17 1017.4 1016.8 0.0
31/11:00am 22.8 19.6 11.8 50 6.3 WSW 20 24 11 13 1017.9 1017.4 0.0
31/10:30am 21.2 18.9 11.8 55 5.4 WSW 15 20 8 11 1018.3 1017.8 0.0
31/10:00am 19.6 18.2 12.1 62 4.3 W 11 19 6 10 1018.6 1018.1 0.0
31/09:30am 18.4 17.1 12.6 69 3.3 W 11 17 6 9 1019.0 1018.4 0.0
31/09:00am 17.9 16.2 12.6 71 3.0 WNW 13 17 7 9 1019.1 1018.5 0.0
31/08:30am 17.0 16.0 12.3 74 2.6 WNW 9 17 5 9 1019.1 1018.5 0.0
31/08:00am 16.2 14.7 10.7 70 3.0 NW 9 13 5 7 1018.9 1018.3 0.0
31/07:30am 14.8 12.7 9.8 72 2.7 WNW 11 13 6 7 1018.6 1018.1 0.0
31/07:00am 12.6 11.0 7.9 73 2.4 WNW 6 7 3 4 1018.3 1017.8 0.0
31/06:30am 10.1 7.6 4.0 66 2.8 NNW 6 7 3 4 1018.0 1017.5 0.0
31/06:00am 10.4 9.4 5.8 73 2.2 CALM 0 0 0 0 1017.6 1017.0 0.0
31/05:30am 10.6 9.4 6.4 75 2.0 N 2 6 1 3 1017.3 1016.7 0.0
31/05:00am 10.8 8.7 5.6 70 2.5 N 6 7 3 4 1017.3 1016.7 0.0
31/04:30am 11.1 8.8 5.0 66 2.9 NNE 6 6 3 3 1017.3 1016.7 0.0
31/04:00am 11.3 10.2 5.2 66 2.9 CALM 0 0 0 0 1017.3 1016.7 0.0
31/03:30am 11.4 9.9 5.1 65 3.0 ENE 2 6 1 3 1017.1 1016.5 0.0
31/03:00am 12.4 10.7 7.7 73 2.4 ENE 6 7 3 4 1017.0 1016.4 0.0
31/02:30am 12.1 9.9 6.2 67 2.9 E 7 9 4 5 1017.2 1016.6 0.0
31/02:00am 13.5 12.6 6.1 61 3.6 CALM 0 0 0 0 1017.3 1016.7 0.0
31/01:30am 14.9 14.4 7.9 63 3.6 CALM 0 0 0 0 1017.5 1016.9 0.0
31/01:00am 15.7 13.6 8.2 61 3.9 S 9 11 5 6 1017.5 1016.9 0.0
31/12:30am 16.4 13.7 8.9 61 3.9 SSE 13 17 7 9 1017.6 1017.0 0.0
31/12:00am 17.3 13.5 9.0 58 4.4 S 19 24 10 13 1017.7 1017.2 0.0
 
Date/Time
WST
Temp
°C
App
Temp
°C
Dew
Point
Rel
Hum
%
Delta-T
°C
Wind Press
QNH
hPa
Press
MSL
hPa
Rain
since 9 am
mm
Dir
 
Spd
km/h
Gust
km/h
Spd
kts
Gust
kts
30/11:30pm 18.2 13.4 5.4 43 6.4 S 20 30 11 16 1017.6 1017.0 0.0
30/11:00pm 14.9 11.1 -3.9 27 7.5 N 7 9 4 5 1017.2 1016.6 0.0
30/10:30pm 14.9 10.7 -3.9 27 7.5 N 9 9 5 5 1017.1 1016.5 0.0
30/10:00pm 15.7 12.5 -3.7 26 7.8 NNW 4 6 2 3 1017.3 1016.7 0.0
30/09:30pm 16.6 12.4 -4.0 24 8.3 N 9 9 5 5 1017.4 1016.8 0.0
30/09:00pm 17.6 14.8 -3.7 23 8.7 NNW 2 7 1 4 1017.4 1016.8 0.0
30/08:30pm 17.6 14.4 -3.7 23 8.8 NNW 4 7 2 4 1017.3 1016.7 0.0
30/08:00pm 18.7 14.1 -4.0 21 9.4 NNW 11 15 6 8 1017.2 1016.6 0.0
30/07:30pm 20.1 15.5 -4.2 19 10.1 NW 11 13 6 7 1017.1 1016.5 0.0
30/07:00pm 21.3 17.0 -4.7 17 10.8 NW 9 11 5 6 1016.8 1016.2 0.0
30/06:30pm 22.8 18.9 -4.3 16 11.6 WNW 7 9 4 5 1016.5 1015.9 0.0
30/06:00pm 24.4 19.7 -4.8 14 12.5 NW 11 15 6 8 1016.1 1015.6 0.0
30/05:30pm 26.3 19.9 -5.3 12 13.6 WNW 20 30 11 16 1015.8 1015.2 0.0
30/05:00pm 27.2 19.9 -5.8 11 14.2 NW 24 32 13 17 1015.8 1015.2 0.0

Other Formats:

Comma delimited format used in spreadsheet applications
http://www.bom.gov.au/fwo/IDW60801/IDW60801.94449.axf

JavaScript Object Notation format (JSON) in row-major order
http://www.bom.gov.au/fwo/IDW60801/IDW60801.94449.json